sensor_id;sensor_type;location;lat;lon;timestamp;temperature;humidity
13848;DHT22;6994;49.752;6.094;2023-03-18T00:01:00;12.30;99.90
13848;DHT22;6994;49.752;6.094;2023-03-18T00:03:25;12.20;99.90
13848;DHT22;6994;49.752;6.094;2023-03-18T00:05:52;12.00;99.90
13848;DHT22;6994;49.752;6.094;2023-03-18T00:08:19;11.90;99.90
13848;DHT22;6994;49.752;6.094;2023-03-18T00:10:49;11.80;99.90
13848;DHT22;6994;49.752;6.094;2023-03-18T00:13:13;11.70;99.90
13848;DHT22;6994;49.752;6.094;2023-03-18T00:15:41;11.90;99.90
13848;DHT22;6994;49.752;6.094;2023-03-18T00:18:08;11.90;99.90
13848;DHT22;6994;49.752;6.094;2023-03-18T00:20:35;11.80;99.90
13848;DHT22;6994;49.752;6.094;2023-03-18T00:23:05;11.80;99.90
13848;DHT22;6994;49.752;6.094;2023-03-18T00:25:32;11.70;99.90
13848;DHT22;6994;49.752;6.094;2023-03-18T00:27:59;11.60;99.90
13848;DHT22;6994;49.752;6.094;2023-03-18T00:30:27;11.60;99.90
13848;DHT22;6994;49.752;6.094;2023-03-18T00:32:54;11.50;99.90
13848;DHT22;6994;49.752;6.094;2023-03-18T00:35:21;11.50;99.90
13848;DHT22;6994;49.752;6.094;2023-03-18T00:37:49;11.40;99.90
13848;DHT22;6994;49.752;6.094;2023-03-18T00:40:17;11.40;99.90
13848;DHT22;6994;49.752;6.094;2023-03-18T00:42:44;11.40;99.90
13848;DHT22;6994;49.752;6.094;2023-03-18T00:45:15;11.40;99.90
13848;DHT22;6994;49.752;6.094;2023-03-18T00:47:44;11.40;99.90
13848;DHT22;6994;49.752;6.094;2023-03-18T00:50:11;11.30;99.90
13848;DHT22;6994;49.752;6.094;2023-03-18T00:52:39;11.60;99.90
13848;DHT22;6994;49.752;6.094;2023-03-18T00:55:07;11.50;99.90
13848;DHT22;6994;49.752;6.094;2023-03-18T00:57:34;11.50;99.90
13848;DHT22;6994;49.752;6.094;2023-03-18T01:00:03;11.40;99.90
13848;DHT22;6994;49.752;6.094;2023-03-18T01:02:29;11.40;99.90
13848;DHT22;6994;49.752;6.094;2023-03-18T01:04:56;11.30;99.90
13848;DHT22;6994;49.752;6.094;2023-03-18T01:07:23;11.30;99.90
13848;DHT22;6994;49.752;6.094;2023-03-18T01:09:51;11.50;99.90
13848;DHT22;6994;49.752;6.094;2023-03-18T01:12:18;11.50;99.90
13848;DHT22;6994;49.752;6.094;2023-03-18T01:14:45;11.40;99.90
13848;DHT22;6994;49.752;6.094;2023-03-18T01:17:12;11.40;99.90
13848;DHT22;6994;49.752;6.094;2023-03-18T01:19:40;11.20;99.90
13848;DHT22;6994;49.752;6.094;2023-03-18T01:22:08;11.10;99.90
13848;DHT22;6994;49.752;6.094;2023-03-18T01:24:36;11.10;99.90
13848;DHT22;6994;49.752;6.094;2023-03-18T01:27:03;11.10;99.90
13848;DHT22;6994;49.752;6.094;2023-03-18T01:29:31;11.00;99.90
13848;DHT22;6994;49.752;6.094;2023-03-18T01:31:58;11.00;99.90
13848;DHT22;6994;49.752;6.094;2023-03-18T01:34:25;11.20;99.90
13848;DHT22;6994;49.752;6.094;2023-03-18T01:36:52;11.10;99.90
13848;DHT22;6994;49.752;6.094;2023-03-18T01:39:20;11.30;99.90
13848;DHT22;6994;49.752;6.094;2023-03-18T01:41:47;11.20;99.90
13848;DHT22;6994;49.752;6.094;2023-03-18T01:44:19;10.80;99.90
13848;DHT22;6994;49.752;6.094;2023-03-18T01:46:45;10.80;99.90
13848;DHT22;6994;49.752;6.094;2023-03-18T01:51:54;10.30;99.90
13848;DHT22;6994;49.752;6.094;2023-03-18T01:54:16;10.30;99.90
13848;DHT22;6994;49.752;6.094;2023-03-18T01:56:44;10.10;99.90
13848;DHT22;6994;49.752;6.094;2023-03-18T01:59:11;10.00;99.90
13848;DHT22;6994;49.752;6.094;2023-03-18T02:01:49;9.80;99.90
13848;DHT22;6994;49.752;6.094;2023-03-18T02:04:14;9.70;99.90
13848;DHT22;6994;49.752;6.094;2023-03-18T02:06:41;9.60;99.90
13848;DHT22;6994;49.752;6.094;2023-03-18T02:09:09;9.50;99.90
13848;DHT22;6994;49.752;6.094;2023-03-18T02:11:38;9.40;99.90
13848;DHT22;6994;49.752;6.094;2023-03-18T02:14:03;9.30;99.90
13848;DHT22;6994;49.752;6.094;2023-03-18T02:16:40;9.10;99.90
13848;DHT22;6994;49.752;6.094;2023-03-18T02:19:08;9.10;99.90
13848;DHT22;6994;49.752;6.094;2023-03-18T02:24:46;8.90;99.90
13848;DHT22;6994;49.752;6.094;2023-03-18T02:29:44;8.70;99.90
13848;DHT22;6994;49.752;6.094;2023-03-18T02:32:11;8.80;99.90
13848;DHT22;6994;49.752;6.094;2023-03-18T02:34:38;8.80;99.90
13848;DHT22;6994;49.752;6.094;2023-03-18T02:37:06;8.90;99.90
13848;DHT22;6994;49.752;6.094;2023-03-18T02:39:34;8.90;99.90
13848;DHT22;6994;49.752;6.094;2023-03-18T02:42:01;9.10;99.90
13848;DHT22;6994;49.752;6.094;2023-03-18T02:44:29;9.00;99.90
13848;DHT22;6994;49.752;6.094;2023-03-18T02:47:01;8.90;99.90
13848;DHT22;6994;49.752;6.094;2023-03-18T02:49:27;8.90;99.90
13848;DHT22;6994;49.752;6.094;2023-03-18T02:51:54;8.80;99.90
13848;DHT22;6994;49.752;6.094;2023-03-18T02:54:25;8.70;99.90
13848;DHT22;6994;49.752;6.094;2023-03-18T02:56:51;8.60;99.90
13848;DHT22;6994;49.752;6.094;2023-03-18T02:59:18;8.50;99.90
13848;DHT22;6994;49.752;6.094;2023-03-18T03:01:46;8.60;99.90
13848;DHT22;6994;49.752;6.094;2023-03-18T03:04:14;8.40;99.90
13848;DHT22;6994;49.752;6.094;2023-03-18T03:06:41;8.40;99.90
13848;DHT22;6994;49.752;6.094;2023-03-18T03:09:08;8.30;99.90
13848;DHT22;6994;49.752;6.094;2023-03-18T03:11:36;8.30;99.90
13848;DHT22;6994;49.752;6.094;2023-03-18T03:14:03;8.20;99.90
13848;DHT22;6994;49.752;6.094;2023-03-18T03:16:30;8.20;99.90
13848;DHT22;6994;49.752;6.094;2023-03-18T03:18:57;8.10;99.90
13848;DHT22;6994;49.752;6.094;2023-03-18T03:21:25;8.20;99.90
13848;DHT22;6994;49.752;6.094;2023-03-18T03:23:52;8.10;99.90
13848;DHT22;6994;49.752;6.094;2023-03-18T03:26:19;8.30;99.90
13848;DHT22;6994;49.752;6.094;2023-03-18T03:28:46;8.20;99.90
13848;DHT22;6994;49.752;6.094;2023-03-18T03:31:13;8.10;99.90
13848;DHT22;6994;49.752;6.094;2023-03-18T03:33:41;8.00;99.90
13848;DHT22;6994;49.752;6.094;2023-03-18T03:36:09;8.10;99.90
13848;DHT22;6994;49.752;6.094;2023-03-18T03:38:35;8.10;99.90
13848;DHT22;6994;49.752;6.094;2023-03-18T03:41:02;8.00;99.90
13848;DHT22;6994;49.752;6.094;2023-03-18T03:43:30;7.90;99.90
13848;DHT22;6994;49.752;6.094;2023-03-18T03:45:57;7.80;99.90
13848;DHT22;6994;49.752;6.094;2023-03-18T03:48:24;7.70;99.90
13848;DHT22;6994;49.752;6.094;2023-03-18T03:50:51;7.60;99.90
13848;DHT22;6994;49.752;6.094;2023-03-18T03:53:19;7.60;99.90
13848;DHT22;6994;49.752;6.094;2023-03-18T03:55:46;7.60;99.90
13848;DHT22;6994;49.752;6.094;2023-03-18T03:58:13;7.50;99.90
13848;DHT22;6994;49.752;6.094;2023-03-18T04:00:40;7.50;99.90
13848;DHT22;6994;49.752;6.094;2023-03-18T04:03:07;7.80;99.90
13848;DHT22;6994;49.752;6.094;2023-03-18T04:05:34;7.90;99.90
13848;DHT22;6994;49.752;6.094;2023-03-18T04:08:02;7.90;99.90
13848;DHT22;6994;49.752;6.094;2023-03-18T04:10:30;7.70;99.90
13848;DHT22;6994;49.752;6.094;2023-03-18T04:12:57;7.70;99.90
13848;DHT22;6994;49.752;6.094;2023-03-18T04:15:24;7.60;99.90
13848;DHT22;6994;49.752;6.094;2023-03-18T04:17:51;7.60;99.90
13848;DHT22;6994;49.752;6.094;2023-03-18T04:20:18;7.70;99.90
13848;DHT22;6994;49.752;6.094;2023-03-18T04:22:46;7.70;99.90
13848;DHT22;6994;49.752;6.094;2023-03-18T04:25:13;7.70;99.90
13848;DHT22;6994;49.752;6.094;2023-03-18T04:27:43;7.60;99.90
13848;DHT22;6994;49.752;6.094;2023-03-18T04:30:10;7.60;99.90
13848;DHT22;6994;49.752;6.094;2023-03-18T04:32:37;7.70;99.90
13848;DHT22;6994;49.752;6.094;2023-03-18T04:35:04;7.70;99.90
13848;DHT22;6994;49.752;6.094;2023-03-18T04:37:32;7.60;99.90
13848;DHT22;6994;49.752;6.094;2023-03-18T04:39:59;7.40;99.90
13848;DHT22;6994;49.752;6.094;2023-03-18T04:42:26;7.30;99.90
13848;DHT22;6994;49.752;6.094;2023-03-18T04:44:53;7.40;99.90
13848;DHT22;6994;49.752;6.094;2023-03-18T04:47:21;7.30;99.90
13848;DHT22;6994;49.752;6.094;2023-03-18T04:49:48;7.20;99.90
13848;DHT22;6994;49.752;6.094;2023-03-18T04:52:16;7.10;99.90
13848;DHT22;6994;49.752;6.094;2023-03-18T04:54:44;7.10;99.90
13848;DHT22;6994;49.752;6.094;2023-03-18T04:57:12;7.10;99.90
13848;DHT22;6994;49.752;6.094;2023-03-18T04:59:40;7.00;99.90
13848;DHT22;6994;49.752;6.094;2023-03-18T05:02:07;7.10;99.90
13848;DHT22;6994;49.752;6.094;2023-03-18T05:04:34;7.10;99.90
13848;DHT22;6994;49.752;6.094;2023-03-18T05:07:01;7.00;99.90
13848;DHT22;6994;49.752;6.094;2023-03-18T05:09:28;7.00;99.90
13848;DHT22;6994;49.752;6.094;2023-03-18T05:11:56;7.20;99.90
13848;DHT22;6994;49.752;6.094;2023-03-18T05:14:23;7.30;99.90
13848;DHT22;6994;49.752;6.094;2023-03-18T05:16:51;7.30;99.90
13848;DHT22;6994;49.752;6.094;2023-03-18T05:19:18;7.30;99.90
13848;DHT22;6994;49.752;6.094;2023-03-18T05:21:45;7.30;99.90
13848;DHT22;6994;49.752;6.094;2023-03-18T05:24:12;7.30;99.90
13848;DHT22;6994;49.752;6.094;2023-03-18T05:26:40;7.20;99.90
13848;DHT22;6994;49.752;6.094;2023-03-18T05:29:07;7.10;99.90
13848;DHT22;6994;49.752;6.094;2023-03-18T05:31:34;7.00;99.90
13848;DHT22;6994;49.752;6.094;2023-03-18T05:34:01;7.00;99.90
13848;DHT22;6994;49.752;6.094;2023-03-18T05:36:28;7.10;99.90
13848;DHT22;6994;49.752;6.094;2023-03-18T05:38:56;7.10;99.90
13848;DHT22;6994;49.752;6.094;2023-03-18T05:41:23;7.00;99.90
13848;DHT22;6994;49.752;6.094;2023-03-18T05:43:50;6.90;99.90
13848;DHT22;6994;49.752;6.094;2023-03-18T05:46:18;6.70;99.90
13848;DHT22;6994;49.752;6.094;2023-03-18T05:48:46;6.60;99.90
13848;DHT22;6994;49.752;6.094;2023-03-18T05:51:13;6.60;99.90
13848;DHT22;6994;49.752;6.094;2023-03-18T05:53:40;6.50;99.90
13848;DHT22;6994;49.752;6.094;2023-03-18T05:56:08;6.50;99.90
13848;DHT22;6994;49.752;6.094;2023-03-18T05:58:35;6.40;99.90
13848;DHT22;6994;49.752;6.094;2023-03-18T06:01:02;6.40;99.90
13848;DHT22;6994;49.752;6.094;2023-03-18T06:03:29;6.60;99.90
13848;DHT22;6994;49.752;6.094;2023-03-18T06:05:56;6.60;99.90
13848;DHT22;6994;49.752;6.094;2023-03-18T06:08:24;6.60;99.90
13848;DHT22;6994;49.752;6.094;2023-03-18T06:10:51;6.50;99.90
13848;DHT22;6994;49.752;6.094;2023-03-18T06:13:19;6.40;99.90
13848;DHT22;6994;49.752;6.094;2023-03-18T06:15:46;6.30;99.90
13848;DHT22;6994;49.752;6.094;2023-03-18T06:18:13;6.30;99.90
13848;DHT22;6994;49.752;6.094;2023-03-18T06:20:40;6.30;99.90
13848;DHT22;6994;49.752;6.094;2023-03-18T06:23:08;6.40;99.90
13848;DHT22;6994;49.752;6.094;2023-03-18T06:25:35;6.40;99.90
13848;DHT22;6994;49.752;6.094;2023-03-18T06:28:02;6.40;99.90
13848;DHT22;6994;49.752;6.094;2023-03-18T06:30:29;6.30;99.90
13848;DHT22;6994;49.752;6.094;2023-03-18T06:32:56;6.40;99.90
13848;DHT22;6994;49.752;6.094;2023-03-18T06:35:24;6.40;99.90
13848;DHT22;6994;49.752;6.094;2023-03-18T06:37:52;6.40;99.90
13848;DHT22;6994;49.752;6.094;2023-03-18T06:40:19;6.40;99.90
13848;DHT22;6994;49.752;6.094;2023-03-18T06:42:46;6.70;99.90
13848;DHT22;6994;49.752;6.094;2023-03-18T06:45:13;6.80;99.90
13848;DHT22;6994;49.752;6.094;2023-03-18T06:47:40;7.10;99.90
13848;DHT22;6994;49.752;6.094;2023-03-18T06:50:08;7.20;99.90
13848;DHT22;6994;49.752;6.094;2023-03-18T06:52:35;7.20;99.90
13848;DHT22;6994;49.752;6.094;2023-03-18T06:55:03;7.20;99.90
13848;DHT22;6994;49.752;6.094;2023-03-18T06:57:30;7.30;99.90
13848;DHT22;6994;49.752;6.094;2023-03-18T06:59:57;7.30;99.90
13848;DHT22;6994;49.752;6.094;2023-03-18T07:02:24;7.30;99.90
13848;DHT22;6994;49.752;6.094;2023-03-18T07:04:51;7.40;99.90
13848;DHT22;6994;49.752;6.094;2023-03-18T07:07:18;7.40;99.90
13848;DHT22;6994;49.752;6.094;2023-03-18T07:09:47;7.50;99.90
13848;DHT22;6994;49.752;6.094;2023-03-18T07:12:14;7.50;99.90
13848;DHT22;6994;49.752;6.094;2023-03-18T07:14:41;7.60;99.90
13848;DHT22;6994;49.752;6.094;2023-03-18T07:17:08;7.70;99.90
13848;DHT22;6994;49.752;6.094;2023-03-18T07:19:36;8.00;99.90
13848;DHT22;6994;49.752;6.094;2023-03-18T07:22:03;8.10;99.90
13848;DHT22;6994;49.752;6.094;2023-03-18T07:24:30;8.20;99.90
13848;DHT22;6994;49.752;6.094;2023-03-18T07:26:57;8.30;99.90
13848;DHT22;6994;49.752;6.094;2023-03-18T07:29:25;8.50;99.90
13848;DHT22;6994;49.752;6.094;2023-03-18T07:31:53;8.60;99.90
13848;DHT22;6994;49.752;6.094;2023-03-18T07:34:21;8.70;99.90
13848;DHT22;6994;49.752;6.094;2023-03-18T07:36:48;8.60;99.90
13848;DHT22;6994;49.752;6.094;2023-03-18T07:39:16;8.70;99.90
13848;DHT22;6994;49.752;6.094;2023-03-18T07:41:43;8.90;99.90
13848;DHT22;6994;49.752;6.094;2023-03-18T07:44:10;9.20;99.90
13848;DHT22;6994;49.752;6.094;2023-03-18T07:46:37;9.40;99.90
13848;DHT22;6994;49.752;6.094;2023-03-18T07:49:04;9.80;99.90
13848;DHT22;6994;49.752;6.094;2023-03-18T07:51:32;9.90;99.90
13848;DHT22;6994;49.752;6.094;2023-03-18T07:53:59;9.90;99.90
13848;DHT22;6994;49.752;6.094;2023-03-18T07:56:26;10.00;99.90
13848;DHT22;6994;49.752;6.094;2023-03-18T07:58:54;10.10;99.90
13848;DHT22;6994;49.752;6.094;2023-03-18T08:01:22;10.10;99.90
13848;DHT22;6994;49.752;6.094;2023-03-18T08:03:50;10.20;99.90
13848;DHT22;6994;49.752;6.094;2023-03-18T08:06:18;10.40;99.90
13848;DHT22;6994;49.752;6.094;2023-03-18T08:08:46;10.50;99.90
13848;DHT22;6994;49.752;6.094;2023-03-18T08:11:14;10.60;99.90
13848;DHT22;6994;49.752;6.094;2023-03-18T08:13:42;10.70;99.90
13848;DHT22;6994;49.752;6.094;2023-03-18T08:16:09;10.70;99.90
13848;DHT22;6994;49.752;6.094;2023-03-18T08:18:36;10.90;99.90
13848;DHT22;6994;49.752;6.094;2023-03-18T08:21:03;11.00;99.90
13848;DHT22;6994;49.752;6.094;2023-03-18T08:23:31;11.20;99.90
13848;DHT22;6994;49.752;6.094;2023-03-18T08:25:58;11.30;99.90
13848;DHT22;6994;49.752;6.094;2023-03-18T08:28:25;11.50;99.90
13848;DHT22;6994;49.752;6.094;2023-03-18T08:30:53;11.60;99.90
13848;DHT22;6994;49.752;6.094;2023-03-18T08:33:19;11.80;99.90
13848;DHT22;6994;49.752;6.094;2023-03-18T08:35:47;12.00;99.90
13848;DHT22;6994;49.752;6.094;2023-03-18T08:38:14;12.10;99.90
13848;DHT22;6994;49.752;6.094;2023-03-18T08:40:41;12.10;99.90
13848;DHT22;6994;49.752;6.094;2023-03-18T08:43:09;12.30;99.90
13848;DHT22;6994;49.752;6.094;2023-03-18T08:45:37;12.40;99.90
13848;DHT22;6994;49.752;6.094;2023-03-18T08:48:04;12.40;99.90
13848;DHT22;6994;49.752;6.094;2023-03-18T08:50:33;12.60;99.90
13848;DHT22;6994;49.752;6.094;2023-03-18T08:52:59;12.80;99.90
13848;DHT22;6994;49.752;6.094;2023-03-18T08:55:30;12.90;99.90
13848;DHT22;6994;49.752;6.094;2023-03-18T08:57:56;13.10;99.90
13848;DHT22;6994;49.752;6.094;2023-03-18T09:00:23;13.40;99.90
13848;DHT22;6994;49.752;6.094;2023-03-18T09:02:51;13.60;99.90
13848;DHT22;6994;49.752;6.094;2023-03-18T09:05:18;14.00;99.90
13848;DHT22;6994;49.752;6.094;2023-03-18T09:07:45;14.20;99.90
13848;DHT22;6994;49.752;6.094;2023-03-18T09:10:12;14.30;99.90
13848;DHT22;6994;49.752;6.094;2023-03-18T09:12:43;14.40;99.90
13848;DHT22;6994;49.752;6.094;2023-03-18T09:15:11;14.50;99.90
13848;DHT22;6994;49.752;6.094;2023-03-18T09:17:37;14.50;99.90
13848;DHT22;6994;49.752;6.094;2023-03-18T09:20:12;14.50;99.90
13848;DHT22;6994;49.752;6.094;2023-03-18T09:22:38;14.50;99.90
13848;DHT22;6994;49.752;6.094;2023-03-18T09:25:05;14.50;99.90
13848;DHT22;6994;49.752;6.094;2023-03-18T09:27:33;14.50;99.90
13848;DHT22;6994;49.752;6.094;2023-03-18T09:30:00;14.50;99.90
13848;DHT22;6994;49.752;6.094;2023-03-18T09:32:27;14.50;99.90
13848;DHT22;6994;49.752;6.094;2023-03-18T09:34:54;14.50;99.90
13848;DHT22;6994;49.752;6.094;2023-03-18T09:37:21;14.50;99.90
13848;DHT22;6994;49.752;6.094;2023-03-18T09:39:49;14.80;99.90
13848;DHT22;6994;49.752;6.094;2023-03-18T09:45:03;14.80;99.90
13848;DHT22;6994;49.752;6.094;2023-03-18T09:48:13;14.70;99.90
13848;DHT22;6994;49.752;6.094;2023-03-18T09:50:41;14.70;99.90
13848;DHT22;6994;49.752;6.094;2023-03-18T09:53:18;14.60;99.90
13848;DHT22;6994;49.752;6.094;2023-03-18T09:55:52;14.50;99.90
13848;DHT22;6994;49.752;6.094;2023-03-18T09:58:29;14.40;99.90
13848;DHT22;6994;49.752;6.094;2023-03-18T10:00:56;14.40;99.90
13848;DHT22;6994;49.752;6.094;2023-03-18T10:06:11;14.30;99.90
13848;DHT22;6994;49.752;6.094;2023-03-18T10:14:20;14.30;99.90
13848;DHT22;6994;49.752;6.094;2023-03-18T10:19:34;14.50;99.90
13848;DHT22;6994;49.752;6.094;2023-03-18T10:24:57;14.50;99.90
13848;DHT22;6994;49.752;6.094;2023-03-18T10:27:43;14.20;99.90
13848;DHT22;6994;49.752;6.094;2023-03-18T10:30:18;14.20;99.90
13848;DHT22;6994;49.752;6.094;2023-03-18T10:32:44;14.10;99.90
13848;DHT22;6994;49.752;6.094;2023-03-18T10:40:43;14.10;99.90
13848;DHT22;6994;49.752;6.094;2023-03-18T10:43:16;14.20;99.90
13848;DHT22;6994;49.752;6.094;2023-03-18T10:45:43;14.30;99.90
13848;DHT22;6994;49.752;6.094;2023-03-18T10:48:23;14.50;99.90
13848;DHT22;6994;49.752;6.094;2023-03-18T10:53:38;14.50;99.90
13848;DHT22;6994;49.752;6.094;2023-03-18T10:56:09;14.70;99.90
13848;DHT22;6994;49.752;6.094;2023-03-18T10:58:39;14.70;99.90
13848;DHT22;6994;49.752;6.094;2023-03-18T11:01:06;14.90;99.90
13848;DHT22;6994;49.752;6.094;2023-03-18T11:04:19;14.80;99.90
13848;DHT22;6994;49.752;6.094;2023-03-18T11:06:00;15.10;99.90
13848;DHT22;6994;49.752;6.094;2023-03-18T11:08:37;15.10;99.90
13848;DHT22;6994;49.752;6.094;2023-03-18T11:11:28;15.10;99.90
13848;DHT22;6994;49.752;6.094;2023-03-18T11:13:55;15.00;99.90
13848;DHT22;6994;49.752;6.094;2023-03-18T11:16:29;15.40;99.90
13848;DHT22;6994;49.752;6.094;2023-03-18T11:18:55;15.30;99.90
13848;DHT22;6994;49.752;6.094;2023-03-18T11:21:23;15.20;99.90
13848;DHT22;6994;49.752;6.094;2023-03-18T11:23:54;15.20;99.90
13848;DHT22;6994;49.752;6.094;2023-03-18T11:26:23;15.20;99.90
13848;DHT22;6994;49.752;6.094;2023-03-18T11:28:53;15.30;99.90
13848;DHT22;6994;49.752;6.094;2023-03-18T11:31:17;15.40;99.90
13848;DHT22;6994;49.752;6.094;2023-03-18T11:33:44;15.80;99.90
13848;DHT22;6994;49.752;6.094;2023-03-18T11:36:19;15.90;99.90
13848;DHT22;6994;49.752;6.094;2023-03-18T11:38:44;15.90;99.90
13848;DHT22;6994;49.752;6.094;2023-03-18T11:41:15;15.80;99.90
13848;DHT22;6994;49.752;6.094;2023-03-18T11:46:42;15.70;99.90
13848;DHT22;6994;49.752;6.094;2023-03-18T11:49:16;15.70;99.90
13848;DHT22;6994;49.752;6.094;2023-03-18T11:54:18;16.30;99.90
13848;DHT22;6994;49.752;6.094;2023-03-18T11:56:46;16.70;99.90
13848;DHT22;6994;49.752;6.094;2023-03-18T11:59:26;17.20;99.90
13848;DHT22;6994;49.752;6.094;2023-03-18T12:02:16;17.80;99.90
13848;DHT22;6994;49.752;6.094;2023-03-18T12:05:08;18.70;99.90
13848;DHT22;6994;49.752;6.094;2023-03-18T12:10:35;20.80;99.90
13848;DHT22;6994;49.752;6.094;2023-03-18T12:16:03;20.60;99.90
13848;DHT22;6994;49.752;6.094;2023-03-18T12:20:49;19.60;99.90
13848;DHT22;6994;49.752;6.094;2023-03-18T12:23:31;19.10;99.90
13848;DHT22;6994;49.752;6.094;2023-03-18T12:26:07;18.60;99.90
13848;DHT22;6994;49.752;6.094;2023-03-18T12:28:47;18.10;99.90
13848;DHT22;6994;49.752;6.094;2023-03-18T12:33:56;17.50;99.90
13848;DHT22;6994;49.752;6.094;2023-03-18T12:36:57;17.20;99.90
13848;DHT22;6994;49.752;6.094;2023-03-18T12:39:20;17.20;99.90
13848;DHT22;6994;49.752;6.094;2023-03-18T12:42:08;17.20;99.90
13848;DHT22;6994;49.752;6.094;2023-03-18T12:49:59;17.80;99.90
13848;DHT22;6994;49.752;6.094;2023-03-18T12:52:34;18.00;99.90
13848;DHT22;6994;49.752;6.094;2023-03-18T12:55:01;18.30;99.90
13848;DHT22;6994;49.752;6.094;2023-03-18T12:57:56;18.30;99.90
13848;DHT22;6994;49.752;6.094;2023-03-18T13:02:54;18.90;99.90
13848;DHT22;6994;49.752;6.094;2023-03-18T13:05:33;18.90;99.90
13848;DHT22;6994;49.752;6.094;2023-03-18T13:10:28;19.40;99.90
13848;DHT22;6994;49.752;6.094;2023-03-18T13:12:59;20.00;99.90
13848;DHT22;6994;49.752;6.094;2023-03-18T13:18:21;21.40;99.90
13848;DHT22;6994;49.752;6.094;2023-03-18T13:20:46;22.20;96.90
13848;DHT22;6994;49.752;6.094;2023-03-18T13:32:13;24.80;94.40
13848;DHT22;6994;49.752;6.094;2023-03-18T13:37:49;25.10;90.90
13848;DHT22;6994;49.752;6.094;2023-03-18T13:40:32;24.90;89.60
13848;DHT22;6994;49.752;6.094;2023-03-18T13:43:00;23.60;91.70
13848;DHT22;6994;49.752;6.094;2023-03-18T13:45:31;23.60;91.70
13848;DHT22;6994;49.752;6.094;2023-03-18T13:48:01;23.70;91.20
13848;DHT22;6994;49.752;6.094;2023-03-18T13:50:31;23.70;91.10
13848;DHT22;6994;49.752;6.094;2023-03-18T13:52:57;23.50;91.70
13848;DHT22;6994;49.752;6.094;2023-03-18T13:55:26;23.90;91.80
13848;DHT22;6994;49.752;6.094;2023-03-18T14:00:32;24.10;89.70
13848;DHT22;6994;49.752;6.094;2023-03-18T14:05:40;23.10;90.80
13848;DHT22;6994;49.752;6.094;2023-03-18T14:08:33;22.50;91.50
13848;DHT22;6994;49.752;6.094;2023-03-18T14:13:45;21.10;92.50
13848;DHT22;6994;49.752;6.094;2023-03-18T14:16:09;21.10;93.40
13848;DHT22;6994;49.752;6.094;2023-03-18T14:18:38;21.40;93.50
13848;DHT22;6994;49.752;6.094;2023-03-18T14:21:20;21.60;93.30
13848;DHT22;6994;49.752;6.094;2023-03-18T14:23:45;21.60;93.10
13848;DHT22;6994;49.752;6.094;2023-03-18T14:26:22;21.70;92.90
13848;DHT22;6994;49.752;6.094;2023-03-18T14:28:52;21.60;93.20
13848;DHT22;6994;49.752;6.094;2023-03-18T14:31:20;21.30;92.70
13848;DHT22;6994;49.752;6.094;2023-03-18T14:33:50;20.90;93.40
13848;DHT22;6994;49.752;6.094;2023-03-18T14:36:19;20.40;93.60
13848;DHT22;6994;49.752;6.094;2023-03-18T14:38:57;19.90;94.90
13848;DHT22;6994;49.752;6.094;2023-03-18T14:41:29;20.90;94.30
13848;DHT22;6994;49.752;6.094;2023-03-18T14:46:36;23.00;92.40
13848;DHT22;6994;49.752;6.094;2023-03-18T14:49:00;23.80;90.00
13848;DHT22;6994;49.752;6.094;2023-03-18T14:51:28;23.40;89.00
13848;DHT22;6994;49.752;6.094;2023-03-18T14:54:05;23.10;90.00
13848;DHT22;6994;49.752;6.094;2023-03-18T14:56:40;22.90;91.10
13848;DHT22;6994;49.752;6.094;2023-03-18T14:59:13;22.90;90.00
13848;DHT22;6994;49.752;6.094;2023-03-18T15:01:40;22.40;90.00
13848;DHT22;6994;49.752;6.094;2023-03-18T15:04:10;21.80;90.90
13848;DHT22;6994;49.752;6.094;2023-03-18T15:06:34;21.20;91.60
13848;DHT22;6994;49.752;6.094;2023-03-18T15:09:03;20.70;91.70
13848;DHT22;6994;49.752;6.094;2023-03-18T15:11:29;20.30;92.60
13848;DHT22;6994;49.752;6.094;2023-03-18T15:13:56;19.90;93.10
13848;DHT22;6994;49.752;6.094;2023-03-18T15:16:23;20.10;93.80
13848;DHT22;6994;49.752;6.094;2023-03-18T15:18:51;20.60;93.60
13848;DHT22;6994;49.752;6.094;2023-03-18T15:21:19;21.00;92.80
13848;DHT22;6994;49.752;6.094;2023-03-18T15:23:50;22.00;91.40
13848;DHT22;6994;49.752;6.094;2023-03-18T15:26:23;22.00;91.30
13848;DHT22;6994;49.752;6.094;2023-03-18T15:28:54;22.00;91.30
13848;DHT22;6994;49.752;6.094;2023-03-18T15:31:27;21.50;91.20
13848;DHT22;6994;49.752;6.094;2023-03-18T15:34:06;20.90;92.10
13848;DHT22;6994;49.752;6.094;2023-03-18T15:36:41;20.70;92.10
13848;DHT22;6994;49.752;6.094;2023-03-18T15:41:53;19.70;93.20
13848;DHT22;6994;49.752;6.094;2023-03-18T15:44:34;18.90;94.70
13848;DHT22;6994;49.752;6.094;2023-03-18T15:46:49;19.00;95.20
13848;DHT22;6994;49.752;6.094;2023-03-18T15:49:16;19.00;95.20
13848;DHT22;6994;49.752;6.094;2023-03-18T15:51:44;19.10;95.60
13848;DHT22;6994;49.752;6.094;2023-03-18T15:54:21;19.20;94.90
13848;DHT22;6994;49.752;6.094;2023-03-18T15:56:45;19.60;94.80
13848;DHT22;6994;49.752;6.094;2023-03-18T15:59:17;19.50;94.90
13848;DHT22;6994;49.752;6.094;2023-03-18T16:01:41;19.30;95.10
13848;DHT22;6994;49.752;6.094;2023-03-18T16:04:14;19.10;95.50
13848;DHT22;6994;49.752;6.094;2023-03-18T16:06:37;18.90;95.80
13848;DHT22;6994;49.752;6.094;2023-03-18T16:09:11;18.80;95.60
13848;DHT22;6994;49.752;6.094;2023-03-18T16:11:36;18.60;95.60
13848;DHT22;6994;49.752;6.094;2023-03-18T16:14:04;18.40;95.70
13848;DHT22;6994;49.752;6.094;2023-03-18T16:16:32;18.20;95.80
13848;DHT22;6994;49.752;6.094;2023-03-18T16:19:00;17.90;95.80
13848;DHT22;6994;49.752;6.094;2023-03-18T16:21:27;17.80;96.20
13848;DHT22;6994;49.752;6.094;2023-03-18T16:23:55;17.60;96.50
13848;DHT22;6994;49.752;6.094;2023-03-18T16:26:23;17.60;97.00
13848;DHT22;6994;49.752;6.094;2023-03-18T16:28:50;17.70;97.00
13848;DHT22;6994;49.752;6.094;2023-03-18T16:31:18;17.20;97.20
13848;DHT22;6994;49.752;6.094;2023-03-18T16:33:46;17.00;97.60
13848;DHT22;6994;49.752;6.094;2023-03-18T16:36:19;16.80;97.90
13848;DHT22;6994;49.752;6.094;2023-03-18T16:38:41;16.70;97.80
13848;DHT22;6994;49.752;6.094;2023-03-18T16:41:08;16.60;98.30
13848;DHT22;6994;49.752;6.094;2023-03-18T16:43:36;16.50;98.50
13848;DHT22;6994;49.752;6.094;2023-03-18T16:46:07;16.40;98.80
13848;DHT22;6994;49.752;6.094;2023-03-18T16:48:33;16.80;99.10
13848;DHT22;6994;49.752;6.094;2023-03-18T16:51:01;16.80;98.70
13848;DHT22;6994;49.752;6.094;2023-03-18T16:53:30;16.60;98.80
13848;DHT22;6994;49.752;6.094;2023-03-18T16:56:01;16.60;98.80
13848;DHT22;6994;49.752;6.094;2023-03-18T16:58:33;16.50;99.10
13848;DHT22;6994;49.752;6.094;2023-03-18T17:01:02;16.30;99.20
13848;DHT22;6994;49.752;6.094;2023-03-18T17:03:29;16.10;99.30
13848;DHT22;6994;49.752;6.094;2023-03-18T17:05:56;16.00;99.60
13848;DHT22;6994;49.752;6.094;2023-03-18T17:08:23;15.90;99.80
13848;DHT22;6994;49.752;6.094;2023-03-18T17:10:52;15.80;99.90
13848;DHT22;6994;49.752;6.094;2023-03-18T17:13:22;15.70;99.90
13848;DHT22;6994;49.752;6.094;2023-03-18T17:15:48;15.80;99.90
13848;DHT22;6994;49.752;6.094;2023-03-18T17:18:16;15.70;99.90
13848;DHT22;6994;49.752;6.094;2023-03-18T17:20:43;15.60;99.90
13848;DHT22;6994;49.752;6.094;2023-03-18T17:23:20;15.30;99.90
13848;DHT22;6994;49.752;6.094;2023-03-18T17:25:50;15.30;99.90
13848;DHT22;6994;49.752;6.094;2023-03-18T17:28:15;15.20;99.90
13848;DHT22;6994;49.752;6.094;2023-03-18T17:30:41;15.20;99.90